createdAt,value
2023-05-05T00:04:36.089Z,19.2
2023-05-05T00:14:44.796Z,19.3
2023-05-05T00:24:53.612Z,19
2023-05-05T00:35:02.511Z,19
2023-05-05T00:45:04.074Z,18.8
2023-05-05T00:55:12.989Z,18.7
2023-05-05T01:05:21.814Z,18.6
2023-05-05T01:15:31.343Z,18.6
2023-05-05T01:25:40.101Z,18.5
2023-05-05T01:35:48.945Z,18.4
2023-05-05T01:45:57.672Z,18.4
2023-05-05T01:56:07.391Z,18.2
2023-05-05T02:06:17.966Z,18.1
2023-05-05T02:16:21.733Z,17.9
2023-05-05T02:26:30.482Z,17.7
2023-05-05T02:36:39.265Z,17.7
2023-05-05T02:46:48.260Z,17.5
2023-05-05T02:56:56.940Z,18.2
2023-05-05T03:07:05.995Z,17.8
2023-05-05T03:17:14.805Z,17.7
2023-05-05T03:27:24.730Z,17.5
2023-05-05T03:37:33.418Z,17.3
2023-05-05T03:47:42.032Z,17.3
2023-05-05T03:57:50.585Z,17.2
2023-05-05T04:07:59.190Z,17.3
2023-05-05T04:18:07.852Z,17.2
2023-05-05T04:28:16.496Z,17.1
2023-05-05T04:38:24.623Z,17.3
2023-05-05T04:48:33.309Z,17.3
2023-05-05T04:58:42.088Z,17.5
2023-05-05T05:08:50.940Z,17.2
2023-05-05T05:18:55.965Z,17.2
2023-05-05T05:29:04.402Z,17.3
2023-05-05T05:39:13.256Z,17.3
2023-05-05T05:49:22.016Z,17
2023-05-05T05:59:35.687Z,17.3
2023-05-05T06:09:40.760Z,18.1
2023-05-05T06:19:41.184Z,18.3
2023-05-05T06:29:39.670Z,18.1
2023-05-05T06:39:41.702Z,18.2
2023-05-05T06:49:50.647Z,18.4
2023-05-05T06:59:51.190Z,19.3
2023-05-05T07:10:00.249Z,21.4
2023-05-05T07:20:09.300Z,23.2
2023-05-05T07:30:18.935Z,24.1
2023-05-05T07:40:25.875Z,24.9
2023-05-05T07:50:34.526Z,26
2023-05-05T08:00:43.284Z,26.7
2023-05-05T08:10:53.485Z,27.2
2023-05-05T08:20:55.966Z,28.4
2023-05-05T08:51:09.065Z,27.8
2023-05-05T09:01:09.809Z,27.8
2023-05-05T09:11:18.725Z,27.2
2023-05-05T09:31:29.774Z,27.2
2023-05-05T09:41:38.635Z,26.7
2023-05-05T09:51:47.846Z,26.9
2023-05-05T10:01:56.552Z,26.6
2023-05-05T10:12:05.326Z,26.9
2023-05-05T10:22:14.000Z,26.6
2023-05-05T10:32:50.056Z,26.3
2023-05-05T10:42:30.869Z,25.8
2023-05-05T10:52:39.740Z,26
2023-05-05T11:02:49.537Z,25.9
2023-05-05T11:12:58.625Z,25.6
2023-05-05T11:23:07.407Z,25.2
2023-05-05T11:33:15.586Z,25.4
2023-05-05T11:43:24.496Z,25
2023-05-05T11:53:33.223Z,25
2023-05-05T12:03:42.205Z,24.5
2023-05-05T12:13:51.029Z,25
2023-05-05T12:23:59.881Z,24.9
2023-05-05T12:34:08.572Z,25
2023-05-05T12:44:17.732Z,25.3
2023-05-05T12:54:19.446Z,25.1
2023-05-05T13:04:21.847Z,24.7
2023-05-05T13:14:30.525Z,24.6
2023-05-05T13:24:50.354Z,25.3
2023-05-05T13:34:46.174Z,24.7
2023-05-05T13:44:54.922Z,24.5
2023-05-05T13:55:03.586Z,24.7
2023-05-05T14:05:12.373Z,24
2023-05-05T14:15:21.106Z,24.4
2023-05-05T14:25:32.028Z,24.8
2023-05-05T14:35:31.775Z,24.6
2023-05-05T14:45:40.578Z,24.7
2023-05-05T14:55:49.853Z,24.6
2023-05-05T15:05:58.645Z,24.7
2023-05-05T15:16:07.449Z,24.7
2023-05-05T15:26:16.251Z,24.7
2023-05-05T15:36:25.136Z,24.1
2023-05-05T15:46:33.920Z,24.2
2023-05-05T15:56:34.943Z,24.5
2023-05-05T16:06:43.707Z,24.1
2023-05-05T16:16:52.585Z,24.2
2023-05-05T16:26:53.603Z,24.2
2023-05-05T16:37:02.263Z,24.1
2023-05-05T16:47:11.174Z,23.4
2023-05-05T16:57:19.885Z,23.5
2023-05-05T17:07:28.681Z,23.5
2023-05-05T17:17:37.454Z,23.6
2023-05-05T17:27:45.725Z,23.3
2023-05-05T17:37:55.421Z,22.8
2023-05-05T17:48:05.376Z,22.8
2023-05-05T17:58:14.471Z,22.6
2023-05-05T18:08:17.687Z,22.2
2023-05-05T18:18:23.751Z,22.1
2023-05-05T18:28:35.052Z,22.1
2023-05-05T18:38:34.113Z,21.8
2023-05-05T18:48:34.897Z,22
2023-05-05T18:58:45.060Z,21.9
2023-05-05T19:08:53.737Z,21.4
2023-05-05T19:19:02.486Z,21.3
2023-05-05T19:29:11.196Z,21.4
2023-05-05T19:39:20.080Z,21.2
2023-05-05T19:49:20.629Z,21.1
2023-05-05T19:59:21.299Z,21.2
2023-05-05T20:09:30.415Z,21.1
2023-05-05T20:19:39.631Z,20.9
2023-05-05T20:29:39.580Z,20.9
2023-05-05T20:39:48.291Z,20.6
2023-05-05T20:50:03.617Z,20.6
2023-05-05T21:00:02.707Z,20.7
2023-05-05T21:10:03.826Z,20.7
2023-05-05T21:20:12.599Z,20.8
2023-05-05T21:30:21.185Z,20.8
2023-05-05T21:40:29.908Z,20.8
2023-05-05T21:50:38.706Z,20.8
2023-05-05T22:00:47.318Z,20.8
2023-05-05T22:10:56.032Z,20.8
2023-05-05T22:21:04.688Z,20.5
2023-05-05T22:31:13.421Z,20.8
2023-05-05T22:41:22.159Z,20.7
2023-05-05T22:51:30.910Z,20.4
2023-05-05T23:01:39.523Z,20
2023-05-05T23:11:48.129Z,19.8
2023-05-05T23:21:56.718Z,19.8
2023-05-05T23:32:05.324Z,19.8
2023-05-05T23:42:14.047Z,19.7
2023-05-05T23:52:22.629Z,19.5
